Keynsham, United Kingdom
Current Conditions -  °F | °C
As of 11:50 AM on Friday 31 Oct 2014 (Local Time) from EGGD Reporting Station
Clear Clear  
Wind Chill: 66°   Ceiling: Unl
Heat Index: 66°   Visibility: 6mi
Dew Point: 55°   Wind: 20mph
Humidity: 68%   Direction: 160°SSE
Pressure: 29.94"   Gusts: NA
Location:  51.41°N, 2.5°W
Report Text: EGGD 311150Z 16017KT CAVOK 19/13 Q1014
Loading
Personal Weather Stations






























Interactive Weather Map
Tropical Storm Tracking
New forecast layout! Learn more

10-Day Weather Forecast

Advertisements
Track Severe Weather on mobile